Spasskiy, Russia
Current Conditions -  °F | °C
As of 4:00 PM on Saturday 29 Nov 2014 (Local Time) from USCM Reporting Station
Broken Clouds Broken Clouds  
Wind Chill: 15°   Ceiling: 2600
Heat Index: 25°   Visibility: 6mi
Dew Point: 14°   Wind: 9mph
Humidity: 64%   Direction: 340°NNW
Pressure: 30.42"   Gusts: NA
Location:  53.7°N, 59.2°E
Report Text: USCM 291000Z 34004MPS 9999 BKN026 M04/M10 Q1030 NOSIG 19090060RMK QFE735
Loading
Personal Weather Stations






























Interactive Weather Map New forecast layout! Learn more

10-Day Weather Forecast

Advertisements
Track Severe Weather on mobile